This is the latest recevied weather packets stored in our database for station/object EA5BZ. If no packets are shown the sender has not sent any weather packets the latest 10 day(s).
| Time | Temp. | Humidity | Pressure | Rain* | Wind** | Luminosity | Snow |
|---|---|---|---|---|---|---|---|
| 1778034917 | 16.11° C | 67% | 1011 hPa | 0 mm | - | - | - |
| 1778032237 | 16.67° C | 64% | 1011 hPa | 0 mm | - | - | - |
| 1778031317 | 17.22° C | 64% | 1011.1 hPa | 0 mm | - | - | - |
| 1778027737 | 16.67° C | 71% | 1011.1 hPa | 0 mm | - | - | - |
| 1778026517 | 16.67° C | 72% | 1011.3 hPa | 0 mm | - | - | - |
| 1778025617 | 16.67° C | 75% | 1011.5 hPa | 0 mm | - | - | - |
| 1778024437 | 16.67° C | 77% | 1011.6 hPa | 0 mm | - | - | - |
| 1778023517 | 16.67° C | 78% | 1011.7 hPa | 0 mm | - | - | - |
| 1778022917 | 17.22° C | 79% | 1011.8 hPa | 0 mm | - | - | - |
| 1778022017 | 17.22° C | 80% | 1011.8 hPa | 0 mm | - | - | - |
| 1778020237 | 17.22° C | 81% | 1012.1 hPa | 0 mm | - | - | - |
| 1778018736 | 17.22° C | 82% | 1012.3 hPa | 0 mm | - | - | - |
| 1778016916 | 17.22° C | 83% | 1012.4 hPa | 0 mm | - | - | - |
| 1778014517 | 17.78° C | 84% | 1012.4 hPa | 0 mm | - | - | - |
| 1778011517 | 17.78° C | 83% | 1012 hPa | 0 mm | - | - | - |
| 1778009717 | 18.33° C | 81% | 1011.7 hPa | 0 mm | - | - | - |
| 1778009417 | 18.33° C | 80% | 1011.8 hPa | 0 mm | - | - | - |
| 1778009137 | 18.33° C | 80% | 1011.8 hPa | 0 mm | - | - | - |
| 1778008517 | 18.89° C | 77% | 1011.6 hPa | 0 mm | - | - | - |
| 1778007917 | 18.89° C | 76% | 1011.3 hPa | 0 mm | - | - | - |
| 1778007017 | 19.44° C | 74% | 1011.2 hPa | 0 mm | - | - | - |
| 1778004337 | 20.56° C | 69% | 1010.9 hPa | 0 mm | - | - | - |
| 1778002857 | 20.56° C | 63% | 1010.7 hPa | 0 mm | - | - | - |
| 1778001917 | 20.56° C | 64% | 1010.6 hPa | 0 mm | - | - | - |
| 1778000137 | 21.67° C | 53% | 1010.5 hPa | 0 mm | - | - | - |
* Rain latest hour (hover to see other rain measurements)
** Current wind speed in m/s (hover to see current wind gust speed)